This is the latest recevied weather packets stored in our database for station/object LRBV. If no packets are shown the sender has not sent any weather packets the latest 10 day(s).
| Time | Temp. | Humidity | Pressure | Rain* | Wind** | Luminosity | Snow |
|---|---|---|---|---|---|---|---|
| 1778032130 | 6.11° C | 87% | 1014 hPa | - | - | - | - |
| 1778031230 | 6.11° C | 87% | 1014 hPa | - | - | - | - |
| 1778030331 | 7.22° C | 87% | 1015 hPa | - | - | - | - |
| 1778029430 | 7.22° C | 87% | 1015 hPa | - | - | - | - |
| 1778028528 | 7.78° C | 82% | 1014 hPa | - | - | - | - |
| 1778027713 | 7.78° C | 82% | 1014 hPa | - | - | - | - |
| 1778026731 | 8.89° C | 82% | 1014 hPa | - | - | - | - |
| 1778025831 | 8.89° C | 82% | 1014 hPa | - | - | - | - |
| 1778024931 | 11.11° C | 72% | 1014 hPa | - | - | - | - |
| 1778024030 | 11.11° C | 72% | 1014 hPa | - | - | - | - |
| 1778023130 | 12.22° C | 67% | 1014 hPa | - | - | - | - |
| 1778022231 | 12.22° C | 67% | 1014 hPa | - | - | - | - |
| 1778021331 | 12.78° C | 63% | 1014 hPa | - | - | - | - |
| 1778020430 | 12.78° C | 63% | 1014 hPa | - | - | - | - |
| 1778019528 | 13.89° C | 59% | 1014 hPa | - | - | - | - |
| 1778018631 | 13.89° C | 59% | 1014 hPa | - | - | - | - |
| 1778017731 | 12.78° C | 63% | 1014 hPa | - | - | - | - |
| 1778016831 | 12.78° C | 63% | 1014 hPa | - | - | - | - |
| 1778015930 | 13.89° C | 63% | 1014 hPa | - | - | - | - |
| 1778015031 | 13.89° C | 63% | 1014 hPa | - | - | - | - |
| 1778014133 | 13.89° C | 63% | 1014 hPa | - | - | - | - |
| 1778013230 | 13.89° C | 63% | 1014 hPa | - | - | - | - |
| 1778012362 | 15° C | 59% | 1014 hPa | - | - | - | - |
| 1778011431 | 15° C | 59% | 1014 hPa | - | - | - | - |
| 1778010530 | 17.22° C | 52% | 1014 hPa | - | - | - | - |
* Rain since midnight (hover to see other rain measurements)
** Current wind speed in m/s (hover to see current wind gust speed)